createdAt,value
2019-02-26T00:02:28.348Z,99.90
2019-02-26T00:05:00.442Z,99.90
2019-02-26T00:07:32.162Z,99.90
2019-02-26T00:10:04.630Z,99.90
2019-02-26T00:12:35.675Z,99.90
2019-02-26T00:15:07.611Z,99.90
2019-02-26T00:17:40.461Z,99.90
2019-02-26T00:20:12.690Z,99.90
2019-02-26T00:22:42.879Z,99.90
2019-02-26T00:25:15.485Z,99.90
2019-02-26T00:27:47.635Z,99.90
2019-02-26T00:30:18.617Z,99.90
2019-02-26T00:32:49.533Z,99.90
2019-02-26T00:35:21.210Z,99.90
2019-02-26T00:37:53.453Z,99.90
2019-02-26T00:40:24.682Z,99.90
2019-02-26T00:42:57.523Z,99.90
2019-02-26T00:45:29.475Z,99.90
2019-02-26T00:48:00.045Z,99.90
2019-02-26T00:50:32.646Z,99.90
2019-02-26T00:53:03.983Z,99.90
2019-02-26T00:55:35.668Z,99.90
2019-02-26T00:58:08.437Z,99.90
2019-02-26T01:00:39.109Z,99.90
2019-02-26T01:03:11.413Z,99.90
2019-02-26T01:05:43.231Z,99.90
2019-02-26T01:08:15.758Z,99.90
2019-02-26T01:10:46.683Z,99.90
2019-02-26T01:13:17.353Z,99.90
2019-02-26T01:15:47.969Z,99.90
2019-02-26T01:18:20.716Z,99.90
2019-02-26T01:20:52.671Z,99.90
2019-02-26T01:23:24.250Z,99.90
2019-02-26T01:25:55.903Z,99.90
2019-02-26T01:28:27.055Z,99.90
2019-02-26T01:31:00.371Z,99.90
2019-02-26T01:33:32.162Z,99.90
2019-02-26T01:36:03.469Z,99.90
2019-02-26T01:38:37.407Z,99.90
2019-02-26T01:41:08.663Z,99.90
2019-02-26T01:43:39.184Z,99.90
2019-02-26T01:46:11.712Z,99.90
2019-02-26T01:48:41.999Z,99.90
2019-02-26T01:51:12.815Z,99.90
2019-02-26T01:53:46.413Z,99.90
2019-02-26T01:56:17.754Z,99.90
2019-02-26T01:58:56.411Z,99.90
2019-02-26T02:01:23.290Z,99.90
2019-02-26T02:03:53.847Z,99.90
2019-02-26T02:06:25.091Z,99.90
2019-02-26T02:08:55.895Z,99.90
2019-02-26T02:11:28.584Z,99.90
2019-02-26T02:14:01.873Z,99.90
2019-02-26T02:16:31.376Z,99.90
2019-02-26T02:19:03.037Z,99.90
2019-02-26T02:21:35.660Z,99.90
2019-02-26T02:24:10.782Z,99.90
2019-02-26T02:26:41.040Z,99.90
2019-02-26T02:29:12.676Z,99.90
2019-02-26T02:31:43.274Z,99.90
2019-02-26T02:34:13.790Z,99.90
2019-02-26T02:36:44.290Z,99.90
2019-02-26T02:39:15.755Z,99.90
2019-02-26T02:41:50.885Z,99.90
2019-02-26T02:44:20.580Z,99.90
2019-02-26T02:46:52.228Z,99.90
2019-02-26T02:49:22.740Z,99.90
2019-02-26T02:51:53.350Z,99.90
2019-02-26T02:54:26.022Z,99.90
2019-02-26T02:56:56.698Z,99.90
2019-02-26T02:59:30.881Z,99.90
2019-02-26T03:02:00.661Z,99.90
2019-02-26T03:04:34.574Z,99.90
2019-02-26T03:07:03.737Z,99.90
2019-02-26T03:09:37.056Z,99.90
2019-02-26T03:12:06.734Z,99.90
2019-02-26T03:14:39.172Z,99.90
2019-02-26T03:17:11.157Z,99.90
2019-02-26T03:19:43.665Z,99.90
2019-02-26T03:22:17.393Z,99.90
2019-02-26T03:24:48.311Z,99.90
2019-02-26T03:27:18.915Z,99.90
2019-02-26T03:29:50.017Z,99.90
2019-02-26T03:32:21.570Z,99.90
2019-02-26T03:34:52.340Z,99.90
2019-02-26T03:37:23.366Z,99.90
2019-02-26T03:39:57.319Z,99.90
2019-02-26T03:42:27.423Z,99.90
2019-02-26T03:44:59.654Z,99.90
2019-02-26T03:47:30.556Z,99.90
2019-02-26T03:50:01.105Z,99.90
2019-02-26T03:52:32.220Z,99.90
2019-02-26T03:55:04.323Z,99.90
2019-02-26T03:57:35.114Z,99.90
2019-02-26T04:00:08.782Z,99.90
2019-02-26T04:02:39.927Z,99.90
2019-02-26T04:05:11.429Z,99.90
2019-02-26T04:07:42.082Z,99.90
2019-02-26T04:10:12.824Z,99.90
2019-02-26T04:12:45.037Z,99.90
2019-02-26T04:15:16.356Z,99.90
2019-02-26T04:17:46.994Z,99.90
2019-02-26T04:20:17.655Z,99.90
2019-02-26T04:22:50.082Z,99.90
2019-02-26T04:25:31.389Z,99.90
2019-02-26T04:28:40.337Z,99.90
2019-02-26T04:32:05.485Z,99.90
2019-02-26T04:35:19.478Z,99.90
2019-02-26T04:38:45.596Z,99.90
2019-02-26T04:41:29.690Z,99.90
2019-02-26T04:44:52.349Z,99.90
2019-02-26T04:47:33.660Z,99.90
2019-02-26T04:50:05.508Z,99.90
2019-02-26T04:52:37.768Z,99.90
2019-02-26T04:55:07.825Z,99.90
2019-02-26T04:57:40.177Z,99.90
2019-02-26T05:00:10.827Z,99.90
2019-02-26T05:02:41.423Z,99.90
2019-02-26T05:05:11.859Z,99.90
2019-02-26T05:07:45.970Z,99.90
2019-02-26T05:10:14.874Z,99.90
2019-02-26T05:12:45.439Z,99.90
2019-02-26T05:15:18.078Z,99.90
2019-02-26T05:17:48.254Z,99.90
2019-02-26T05:20:19.042Z,99.90
2019-02-26T05:22:52.165Z,99.90
2019-02-26T05:25:22.113Z,99.90
2019-02-26T05:27:52.864Z,99.90
2019-02-26T05:30:23.478Z,99.90
2019-02-26T05:32:57.084Z,99.90
2019-02-26T05:35:26.308Z,99.90
2019-02-26T05:38:00.362Z,99.90
2019-02-26T05:40:29.014Z,99.90
2019-02-26T05:43:01.484Z,99.90
2019-02-26T05:45:34.926Z,99.90
2019-02-26T05:48:04.109Z,99.90
2019-02-26T05:50:35.558Z,99.90
2019-02-26T05:53:07.609Z,99.90
2019-02-26T05:55:41.642Z,99.90
2019-02-26T05:58:15.164Z,99.90
2019-02-26T06:00:43.618Z,99.90
2019-02-26T06:03:16.306Z,99.90
2019-02-26T06:05:49.010Z,99.90
2019-02-26T06:08:18.799Z,99.90
2019-02-26T06:10:49.340Z,99.90
2019-02-26T06:13:19.870Z,99.90
2019-02-26T06:15:51.421Z,99.90
2019-02-26T06:18:22.749Z,99.90
2019-02-26T06:20:54.055Z,99.90
2019-02-26T06:23:28.045Z,99.90
2019-02-26T06:25:58.950Z,99.90
2019-02-26T06:28:35.552Z,99.90
2019-02-26T06:31:02.424Z,99.90
2019-02-26T06:33:36.072Z,99.90
2019-02-26T06:36:06.480Z,99.90
2019-02-26T06:38:37.136Z,99.90
2019-02-26T06:41:07.694Z,99.90
2019-02-26T06:43:39.968Z,99.90
2019-02-26T06:46:12.295Z,99.90
2019-02-26T06:48:42.909Z,99.90
2019-02-26T06:51:13.507Z,99.90
2019-02-26T06:53:47.083Z,99.90
2019-02-26T06:56:17.920Z,99.90
2019-02-26T06:58:49.254Z,99.90
2019-02-26T07:01:20.185Z,99.90
2019-02-26T07:03:51.013Z,99.90
2019-02-26T07:06:23.420Z,99.90
2019-02-26T07:08:54.064Z,99.90
2019-02-26T07:11:26.202Z,99.90
2019-02-26T07:13:58.337Z,99.90
2019-02-26T07:16:29.024Z,99.90
2019-02-26T07:19:01.127Z,99.90
2019-02-26T07:21:31.944Z,99.90
2019-02-26T07:24:03.568Z,99.90
2019-02-26T07:26:36.176Z,99.90
2019-02-26T07:29:08.200Z,99.90
2019-02-26T07:31:39.579Z,99.90
2019-02-26T07:34:10.244Z,99.90
2019-02-26T07:36:41.171Z,99.90
2019-02-26T07:39:15.332Z,99.90
2019-02-26T07:41:47.176Z,99.90
2019-02-26T07:44:18.872Z,99.90
2019-02-26T07:46:50.301Z,99.90
2019-02-26T07:49:21.010Z,99.90
2019-02-26T07:51:51.980Z,99.90
2019-02-26T07:54:22.739Z,99.90
2019-02-26T07:56:55.023Z,99.90
2019-02-26T07:59:27.814Z,99.90
2019-02-26T08:01:58.303Z,99.90
2019-02-26T08:04:28.905Z,99.90
2019-02-26T08:07:01.352Z,99.90
2019-02-26T08:09:31.830Z,99.90
2019-02-26T08:12:04.420Z,99.90
2019-02-26T08:14:34.999Z,99.90
2019-02-26T08:17:07.780Z,99.90
2019-02-26T08:19:39.873Z,99.90
2019-02-26T08:22:10.634Z,99.90
2019-02-26T08:24:41.254Z,99.90
2019-02-26T08:27:13.548Z,99.90
2019-02-26T08:29:44.120Z,99.90
2019-02-26T08:32:18.140Z,99.90
2019-02-26T08:34:46.889Z,99.90
2019-02-26T08:37:17.509Z,99.90
2019-02-26T08:39:48.074Z,99.90
2019-02-26T08:42:18.674Z,99.90
2019-02-26T08:44:51.089Z,99.90
2019-02-26T08:47:23.376Z,99.90
2019-02-26T08:49:53.694Z,99.90
2019-02-26T08:52:26.745Z,99.90
2019-02-26T08:54:56.534Z,99.90
2019-02-26T08:57:27.169Z,99.90
2019-02-26T08:59:57.881Z,99.90
2019-02-26T09:02:28.499Z,99.90
2019-02-26T09:04:59.729Z,99.90
2019-02-26T09:07:31.759Z,99.90
2019-02-26T09:10:02.554Z,99.90
2019-02-26T09:12:33.010Z,99.90
2019-02-26T09:15:03.564Z,99.90
2019-02-26T09:17:34.838Z,99.90
2019-02-26T09:20:10.246Z,99.90
2019-02-26T09:22:45.638Z,99.90
2019-02-26T09:25:13.584Z,99.90
2019-02-26T09:27:44.109Z,99.90
2019-02-26T09:30:16.454Z,99.90
2019-02-26T09:32:47.099Z,99.90
2019-02-26T09:35:21.759Z,99.90
2019-02-26T09:37:52.273Z,99.90
2019-02-26T09:40:23.544Z,99.90
2019-02-26T09:42:57.259Z,99.90
2019-02-26T09:45:29.813Z,99.90
2019-02-26T09:48:01.086Z,99.90
2019-02-26T09:50:31.863Z,99.90
2019-02-26T09:53:02.644Z,99.90
2019-02-26T09:55:33.404Z,99.90
2019-02-26T09:58:03.959Z,99.90
2019-02-26T10:00:34.494Z,99.90
2019-02-26T10:03:07.826Z,99.90
2019-02-26T10:05:37.349Z,99.90
2019-02-26T10:08:07.974Z,99.90
2019-02-26T10:10:39.840Z,99.90
2019-02-26T10:13:10.604Z,99.90
2019-02-26T10:15:42.821Z,99.90
2019-02-26T10:18:14.119Z,99.90
2019-02-26T10:20:45.620Z,99.90
2019-02-26T10:23:19.216Z,99.90
2019-02-26T10:25:52.982Z,99.80
2019-02-26T10:28:22.393Z,98.30
2019-02-26T10:30:55.020Z,98.10
2019-02-26T10:33:25.594Z,97.70
2019-02-26T10:35:56.379Z,97.30
2019-02-26T10:38:29.573Z,93.60
2019-02-26T10:41:01.654Z,92.80
2019-02-26T10:43:31.480Z,94.00
2019-02-26T10:46:01.969Z,92.80
2019-02-26T10:48:32.760Z,91.20
2019-02-26T10:51:06.014Z,90.60
2019-02-26T10:53:35.706Z,90.50
2019-02-26T10:56:06.350Z,86.70
2019-02-26T10:58:37.035Z,85.20
2019-02-26T11:01:08.159Z,83.40
2019-02-26T11:03:43.417Z,82.30
2019-02-26T11:06:15.914Z,83.60
2019-02-26T11:08:43.304Z,80.60
2019-02-26T11:11:16.062Z,80.80
2019-02-26T11:13:50.967Z,77.20
2019-02-26T11:16:24.870Z,80.00
2019-02-26T11:18:50.740Z,77.00
2019-02-26T11:21:21.355Z,73.30
2019-02-26T11:23:52.144Z,76.00
2019-02-26T11:26:22.684Z,71.20
2019-02-26T11:28:53.255Z,73.50
2019-02-26T11:31:25.442Z,70.00
2019-02-26T11:33:57.276Z,69.60
2019-02-26T11:36:30.416Z,67.70
2019-02-26T11:39:02.253Z,68.70
2019-02-26T11:41:35.435Z,68.50
2019-02-26T11:44:09.993Z,68.70
2019-02-26T11:46:37.719Z,72.40
2019-02-26T11:49:09.465Z,65.10
2019-02-26T11:51:42.463Z,64.20
2019-02-26T11:54:14.926Z,63.20
2019-02-26T11:56:47.170Z,62.40
2019-02-26T11:59:19.339Z,61.40
2019-02-26T12:01:49.704Z,61.20
2019-02-26T12:04:20.709Z,62.50
2019-02-26T12:06:51.306Z,61.00
2019-02-26T12:09:21.859Z,57.20
2019-02-26T12:11:52.534Z,60.60
2019-02-26T12:14:23.274Z,62.20
2019-02-26T12:16:53.840Z,59.00
2019-02-26T12:19:25.666Z,59.00
2019-02-26T12:21:57.458Z,58.60
2019-02-26T12:24:30.778Z,58.40
2019-02-26T12:27:01.514Z,57.10
2019-02-26T12:29:32.079Z,57.50
2019-02-26T12:32:04.806Z,57.30
2019-02-26T12:34:35.918Z,57.70
2019-02-26T12:37:11.180Z,56.20
2019-02-26T12:39:39.299Z,57.70
2019-02-26T12:42:10.677Z,55.80
2019-02-26T12:44:45.283Z,55.60
2019-02-26T12:47:17.433Z,54.30
2019-02-26T12:49:47.204Z,55.10
2019-02-26T12:52:21.252Z,53.00
2019-02-26T12:54:50.574Z,53.90
2019-02-26T12:57:23.781Z,53.30
2019-02-26T12:59:53.679Z,53.50
2019-02-26T13:02:25.636Z,52.20
2019-02-26T13:04:56.654Z,51.60
2019-02-26T13:07:27.249Z,52.00
2019-02-26T13:10:00.998Z,52.10
2019-02-26T13:12:32.372Z,52.70
2019-02-26T13:15:05.647Z,52.90
2019-02-26T13:17:35.234Z,53.40
2019-02-26T13:20:11.036Z,51.70
2019-02-26T13:22:39.873Z,51.80
2019-02-26T13:25:15.594Z,51.20
2019-02-26T13:27:47.270Z,49.60
2019-02-26T13:30:22.079Z,50.00
2019-02-26T13:33:00.424Z,49.80
2019-02-26T13:35:25.059Z,51.20
2019-02-26T13:37:55.744Z,51.40
2019-02-26T13:40:26.464Z,50.60
2019-02-26T13:45:29.766Z,49.30
2019-02-26T13:48:01.405Z,49.70
2019-02-26T13:50:32.764Z,49.70
2019-02-26T13:53:05.324Z,50.30
2019-02-26T13:55:35.866Z,48.80
2019-02-26T13:58:11.669Z,48.80
2019-02-26T14:00:38.855Z,49.00
2019-02-26T14:03:09.679Z,48.90
2019-02-26T14:05:40.354Z,49.30
2019-02-26T14:08:10.999Z,50.00
2019-02-26T14:10:41.794Z,49.50
2019-02-26T14:13:12.373Z,49.50
2019-02-26T14:15:43.108Z,49.70
2019-02-26T14:18:13.755Z,49.40
2019-02-26T14:20:45.515Z,49.30
2019-02-26T14:23:16.209Z,48.50
2019-02-26T14:25:46.978Z,48.50
2019-02-26T14:28:17.618Z,49.30
2019-02-26T14:30:48.268Z,49.60
2019-02-26T14:33:18.833Z,49.30
2019-02-26T14:35:49.529Z,48.10
2019-02-26T14:38:20.123Z,47.60
2019-02-26T14:40:50.683Z,47.40
2019-02-26T14:43:21.243Z,47.20
2019-02-26T14:45:52.079Z,47.30
2019-02-26T14:48:22.674Z,47.90
2019-02-26T14:50:53.439Z,45.90
2019-02-26T14:53:24.223Z,45.30
2019-02-26T14:55:55.074Z,45.10
2019-02-26T14:58:25.732Z,45.50
2019-02-26T15:00:57.881Z,45.90
2019-02-26T15:03:28.619Z,46.20
2019-02-26T15:05:59.294Z,45.70
2019-02-26T15:08:30.356Z,44.40
2019-02-26T15:11:01.089Z,42.90
2019-02-26T15:13:31.779Z,43.10
2019-02-26T15:16:02.594Z,43.50
2019-02-26T15:18:35.737Z,42.70
2019-02-26T15:21:05.719Z,43.40
2019-02-26T15:23:36.354Z,43.30
2019-02-26T15:26:07.129Z,43.40
2019-02-26T15:28:37.846Z,43.90
2019-02-26T15:31:08.665Z,43.40
2019-02-26T15:33:39.564Z,43.70
2019-02-26T15:36:10.429Z,43.70
2019-02-26T15:38:41.364Z,43.20
2019-02-26T15:41:12.169Z,42.30
2019-02-26T15:43:42.856Z,42.30
2019-02-26T15:46:13.559Z,40.90
2019-02-26T15:48:44.076Z,40.60
2019-02-26T15:51:19.909Z,41.00
2019-02-26T15:53:47.323Z,41.20
2019-02-26T15:56:18.170Z,40.10
2019-02-26T15:58:48.861Z,39.50
2019-02-26T16:01:19.994Z,39.70
2019-02-26T16:03:50.710Z,40.60
2019-02-26T16:06:21.394Z,41.10
2019-02-26T16:08:52.105Z,41.30
2019-02-26T16:11:22.839Z,42.30
2019-02-26T16:13:53.655Z,42.90
2019-02-26T16:16:24.449Z,44.50
2019-02-26T16:18:55.135Z,45.60
2019-02-26T16:21:25.979Z,45.20
2019-02-26T16:23:56.875Z,45.50
2019-02-26T16:26:33.955Z,45.50
2019-02-26T16:29:27.739Z,48.70
2019-02-26T16:31:58.340Z,48.40
2019-02-26T16:34:55.310Z,49.60
2019-02-26T16:37:24.830Z,52.00
2019-02-26T16:39:56.047Z,51.80
2019-02-26T16:42:27.825Z,48.40
2019-02-26T16:45:01.110Z,48.60
2019-02-26T16:47:30.970Z,47.40
2019-02-26T16:50:11.799Z,46.60
2019-02-26T16:52:34.120Z,46.50
2019-02-26T16:55:05.065Z,46.50
2019-02-26T16:57:35.705Z,47.90
2019-02-26T17:00:07.470Z,48.40
2019-02-26T17:02:38.340Z,49.40
2019-02-26T17:05:09.607Z,49.40
2019-02-26T17:07:41.602Z,50.30
2019-02-26T17:10:13.995Z,51.10
2019-02-26T17:12:46.220Z,51.30
2019-02-26T17:15:23.990Z,51.70
2019-02-26T17:17:54.135Z,54.00
2019-02-26T17:20:26.413Z,55.40
2019-02-26T17:22:57.186Z,57.10
2019-02-26T17:25:29.010Z,58.10
2019-02-26T17:27:59.769Z,57.70
2019-02-26T17:30:30.444Z,61.10
2019-02-26T17:33:01.295Z,61.50
2019-02-26T17:35:31.992Z,61.10
2019-02-26T17:38:02.750Z,60.80
2019-02-26T17:40:36.389Z,60.20
2019-02-26T17:43:06.505Z,59.30
2019-02-26T17:45:38.039Z,60.20
2019-02-26T17:48:08.780Z,61.80
2019-02-26T17:50:39.504Z,63.70
2019-02-26T17:53:11.598Z,64.20
2019-02-26T17:55:42.619Z,64.80
2019-02-26T17:58:13.499Z,66.60
2019-02-26T18:00:46.245Z,68.30
2019-02-26T18:03:17.030Z,68.50
2019-02-26T18:05:51.338Z,67.90
2019-02-26T18:08:20.520Z,67.70
2019-02-26T18:10:51.410Z,67.60
2019-02-26T18:13:22.084Z,67.50
2019-02-26T18:15:56.919Z,67.50
2019-02-26T18:18:26.195Z,70.90
2019-02-26T18:20:57.025Z,74.60
2019-02-26T18:23:27.945Z,74.50
2019-02-26T18:25:58.620Z,76.50
2019-02-26T18:28:29.352Z,78.40
2019-02-26T18:31:00.355Z,80.70
2019-02-26T18:33:31.109Z,80.00
2019-02-26T18:36:01.835Z,79.70
2019-02-26T18:38:32.580Z,81.40
2019-02-26T18:41:03.630Z,81.80
2019-02-26T18:43:34.454Z,82.30
2019-02-26T18:46:05.404Z,86.40
2019-02-26T18:48:36.529Z,89.40
2019-02-26T18:51:07.854Z,89.10
2019-02-26T18:53:38.735Z,89.90
2019-02-26T18:56:09.424Z,91.20
2019-02-26T18:58:40.195Z,91.50
2019-02-26T19:01:11.625Z,90.00
2019-02-26T19:03:42.354Z,86.70
2019-02-26T19:06:13.244Z,87.20
2019-02-26T19:08:43.919Z,85.70
2019-02-26T19:11:16.715Z,87.90
2019-02-26T19:13:47.304Z,90.40
2019-02-26T19:16:20.421Z,90.30
2019-02-26T19:18:51.039Z,91.60
2019-02-26T19:21:22.293Z,89.50
2019-02-26T19:23:53.127Z,90.90
2019-02-26T19:26:23.914Z,92.70
2019-02-26T19:28:56.757Z,93.40
2019-02-26T19:31:27.129Z,95.30
2019-02-26T19:33:58.227Z,94.10
2019-02-26T19:36:29.144Z,94.70
2019-02-26T19:39:00.975Z,95.00
2019-02-26T19:41:32.510Z,95.60
2019-02-26T19:44:03.430Z,92.80
2019-02-26T19:46:34.140Z,94.60
2019-02-26T19:49:05.788Z,93.50
2019-02-26T19:51:37.254Z,94.20
2019-02-26T19:54:08.139Z,93.30
2019-02-26T19:56:39.120Z,92.40
2019-02-26T19:59:13.472Z,91.80
2019-02-26T20:01:42.320Z,91.50
2019-02-26T20:04:14.675Z,92.40
2019-02-26T20:06:45.741Z,90.40
2019-02-26T20:09:17.445Z,88.60
2019-02-26T20:11:48.244Z,87.00
2019-02-26T20:14:21.659Z,86.80
2019-02-26T20:16:52.679Z,88.40
2019-02-26T20:19:23.535Z,88.30
2019-02-26T20:21:54.405Z,85.80
2019-02-26T20:24:25.231Z,85.20
2019-02-26T20:26:55.983Z,85.40
2019-02-26T20:29:27.870Z,87.10
2019-02-26T20:31:58.959Z,85.90
2019-02-26T20:34:29.939Z,87.30
2019-02-26T20:37:02.824Z,89.30
2019-02-26T20:39:33.755Z,91.80
2019-02-26T20:42:05.843Z,92.20
2019-02-26T20:44:37.285Z,92.70
2019-02-26T20:47:08.505Z,90.40
2019-02-26T20:49:39.655Z,90.20
2019-02-26T20:52:10.770Z,87.10
2019-02-26T20:54:44.426Z,86.70
2019-02-26T20:57:14.397Z,93.20
2019-02-26T20:59:45.155Z,95.60
2019-02-26T21:02:15.820Z,96.90
2019-02-26T21:04:46.684Z,96.30
2019-02-26T21:07:17.499Z,95.80
2019-02-26T21:09:48.329Z,96.20
2019-02-26T21:12:19.360Z,95.60
2019-02-26T21:14:50.355Z,95.30
2019-02-26T21:17:21.039Z,95.10
2019-02-26T21:19:51.725Z,96.00
2019-02-26T21:22:22.777Z,96.70
2019-02-26T21:24:53.419Z,97.10
2019-02-26T21:27:25.908Z,98.60
2019-02-26T21:29:56.515Z,99.90
2019-02-26T21:32:27.189Z,99.90
2019-02-26T21:34:57.964Z,99.90
2019-02-26T21:37:32.604Z,99.90
2019-02-26T21:40:01.035Z,99.90
2019-02-26T21:42:31.574Z,99.90
2019-02-26T21:45:02.259Z,99.90
2019-02-26T21:47:33.039Z,99.90
2019-02-26T21:50:03.734Z,99.90
2019-02-26T21:52:34.479Z,99.90
2019-02-26T21:55:05.214Z,99.90
2019-02-26T21:57:35.889Z,99.90
2019-02-26T22:00:07.299Z,99.90
2019-02-26T22:02:38.049Z,99.90
2019-02-26T22:05:09.264Z,99.90
2019-02-26T22:07:39.870Z,99.90
2019-02-26T22:10:11.975Z,99.90
2019-02-26T22:12:42.929Z,99.90
2019-02-26T22:15:15.569Z,99.90
2019-02-26T22:17:46.694Z,99.90
2019-02-26T22:20:23.699Z,99.90
2019-02-26T22:22:49.705Z,99.90
2019-02-26T22:25:20.572Z,99.90
2019-02-26T22:27:51.159Z,99.90
2019-02-26T22:30:22.871Z,99.90
2019-02-26T22:32:53.684Z,99.90
2019-02-26T22:35:25.921Z,99.90
2019-02-26T22:37:56.594Z,99.90
2019-02-26T22:40:29.198Z,99.90
2019-02-26T22:42:59.539Z,99.90
2019-02-26T22:45:30.349Z,99.90
2019-02-26T22:48:01.104Z,99.90
2019-02-26T22:50:31.859Z,99.90
2019-02-26T22:53:04.060Z,99.90
2019-02-26T22:55:34.804Z,99.90
2019-02-26T22:58:05.545Z,99.90
2019-02-26T23:01:12.759Z,99.90
2019-02-26T23:03:45.739Z,99.90
2019-02-26T23:06:15.974Z,99.90
2019-02-26T23:08:46.700Z,99.90
2019-02-26T23:11:17.614Z,99.90
2019-02-26T23:13:48.222Z,99.90
2019-02-26T23:16:19.150Z,99.90
2019-02-26T23:18:50.094Z,99.90
2019-02-26T23:21:20.794Z,99.90
2019-02-26T23:23:54.662Z,99.90
2019-02-26T23:26:23.545Z,99.90
2019-02-26T23:28:54.971Z,99.90
2019-02-26T23:31:26.515Z,99.90
2019-02-26T23:33:57.277Z,99.90
2019-02-26T23:36:28.599Z,99.90
2019-02-26T23:38:59.559Z,99.90
2019-02-26T23:41:30.802Z,99.90
2019-02-26T23:44:02.409Z,99.90
2019-02-26T23:46:33.109Z,99.90
2019-02-26T23:49:03.747Z,99.90
2019-02-26T23:51:34.397Z,99.90
2019-02-26T23:54:07.317Z,99.90
2019-02-26T23:56:37.693Z,99.90
2019-02-26T23:59:08.565Z,99.90
